createdAt,value
2017-03-31T00:00:06.353Z,61.6
2017-03-31T00:10:06.354Z,60.5
2017-03-31T00:20:06.354Z,61.1
2017-03-31T00:30:06.358Z,61.1
2017-03-31T00:40:06.354Z,61.1
2017-03-31T00:50:06.391Z,61.1
2017-03-31T01:00:06.372Z,61.6
2017-03-31T01:10:06.392Z,61.1
2017-03-31T01:20:06.364Z,60.5
2017-03-31T01:30:06.357Z,60.5
2017-03-31T01:40:06.358Z,61.1
2017-03-31T01:50:06.358Z,60.5
2017-03-31T02:00:06.361Z,60.5
2017-03-31T02:10:06.361Z,60.5
2017-03-31T02:20:06.359Z,60.5
2017-03-31T02:30:06.364Z,60.5
2017-03-31T02:40:06.360Z,60.5
2017-03-31T02:50:06.361Z,60.5
2017-03-31T03:00:06.361Z,60.5
2017-03-31T03:10:06.361Z,60.5
2017-03-31T03:20:06.364Z,60
2017-03-31T03:30:06.361Z,60
2017-03-31T03:40:06.361Z,60
2017-03-31T03:50:06.398Z,60
2017-03-31T04:00:06.361Z,60
2017-03-31T04:10:06.359Z,59.5
2017-03-31T04:20:06.363Z,59.5
2017-03-31T04:30:06.364Z,60
2017-03-31T04:40:06.390Z,59.5
2017-03-31T04:50:06.360Z,60
2017-03-31T05:00:06.358Z,59.5
2017-03-31T05:10:06.361Z,59.5
2017-03-31T05:20:06.390Z,60
2017-03-31T05:30:06.357Z,59.5
2017-03-31T05:40:06.363Z,59.5
2017-03-31T05:50:06.364Z,59.5
2017-03-31T06:00:06.359Z,59.5
2017-03-31T06:10:06.357Z,59.5
2017-03-31T06:20:06.375Z,59.5
2017-03-31T06:30:06.397Z,59.5
2017-03-31T06:40:06.365Z,60
2017-03-31T06:50:06.430Z,59.5
2017-03-31T07:00:06.363Z,59.5
2017-03-31T07:10:06.390Z,59.5
2017-03-31T07:20:06.429Z,59.5
2017-03-31T07:30:06.360Z,59.5
2017-03-31T07:40:06.363Z,59.5
2017-03-31T07:50:06.368Z,60
2017-03-31T08:00:06.363Z,60.5
2017-03-31T08:10:06.360Z,59.5
2017-03-31T08:20:01.720Z,60
2017-03-31T08:30:06.363Z,60
2017-03-31T08:40:06.391Z,60
2017-03-31T08:50:06.363Z,60.5
2017-03-31T09:00:06.401Z,60.5
2017-03-31T09:10:06.374Z,61.6
2017-03-31T09:20:06.363Z,61.1
2017-03-31T09:30:06.334Z,61.6
2017-03-31T09:40:06.388Z,61.1
2017-03-31T09:50:06.386Z,61.6
2017-03-31T10:00:06.360Z,60.5
2017-03-31T10:10:06.358Z,61.6
2017-03-31T10:20:06.359Z,61.6
2017-03-31T10:30:06.358Z,61.6
2017-03-31T10:40:06.399Z,62.1
2017-03-31T10:50:06.358Z,62.7
2017-03-31T11:00:06.355Z,62.7
2017-03-31T11:10:06.359Z,62.1
2017-03-31T11:20:06.366Z,62.1
2017-03-31T11:30:06.357Z,62.1
2017-03-31T11:40:06.388Z,62.1
2017-03-31T11:50:06.392Z,62.7
2017-03-31T12:00:06.359Z,62.7
2017-03-31T12:10:06.364Z,63.2
2017-03-31T12:20:06.391Z,62.7
2017-03-31T12:30:06.358Z,63.8
2017-03-31T12:40:06.372Z,63.2
2017-03-31T12:50:06.370Z,62.7
2017-03-31T13:00:06.398Z,63.2
2017-03-31T13:10:06.388Z,63.8
2017-03-31T13:20:06.391Z,63.8
2017-03-31T13:30:06.360Z,63.8
2017-03-31T13:40:06.398Z,63.8
2017-03-31T13:50:06.388Z,63.8
2017-03-31T14:00:06.396Z,64.3
2017-03-31T14:10:06.397Z,63.8
2017-03-31T14:20:06.360Z,63.8
2017-03-31T14:30:06.365Z,63.8
2017-03-31T14:40:06.361Z,64.3
2017-03-31T14:50:06.365Z,64.8
2017-03-31T15:00:06.357Z,64.3
2017-03-31T15:10:04.363Z,64.3
2017-03-31T15:20:06.364Z,64.8
2017-03-31T15:30:06.362Z,64.8
2017-03-31T15:40:06.371Z,64.8
2017-03-31T15:50:06.387Z,64.3
2017-03-31T16:00:06.368Z,64.3
2017-03-31T16:10:06.359Z,64.3
2017-03-31T16:20:06.417Z,64.8
2017-03-31T16:30:06.354Z,64.8
2017-03-31T16:40:06.356Z,64.3
2017-03-31T16:50:06.365Z,65.4
2017-03-31T17:00:06.393Z,64.3
2017-03-31T17:10:06.367Z,64.8
2017-03-31T17:20:06.362Z,64.8
2017-03-31T17:30:06.357Z,64.8
2017-03-31T17:40:06.363Z,64.8
2017-03-31T17:50:06.357Z,64.3
2017-03-31T18:00:06.361Z,64.8
2017-03-31T18:10:06.394Z,64.8
2017-03-31T18:20:06.371Z,64.3
2017-03-31T18:30:06.365Z,64.8
2017-03-31T18:40:06.352Z,64.8
2017-03-31T18:50:06.363Z,64.8
2017-03-31T19:00:06.372Z,64.3
2017-03-31T19:10:06.398Z,64.3
2017-03-31T19:20:06.367Z,64.3
2017-03-31T19:30:06.362Z,63.8
2017-03-31T19:40:06.375Z,64.3
2017-03-31T19:50:06.426Z,64.3
2017-03-31T20:00:06.362Z,63.8
2017-03-31T20:10:06.369Z,63.8
2017-03-31T20:20:06.365Z,64.3
2017-03-31T20:30:04.119Z,63.2
2017-03-31T20:40:06.369Z,63.8
2017-03-31T20:50:06.366Z,63.8
2017-03-31T21:00:06.373Z,62.7
2017-03-31T21:10:06.396Z,63.2
2017-03-31T21:20:06.362Z,63.2
2017-03-31T21:30:06.368Z,62.7
2017-03-31T21:40:06.362Z,63.8
2017-03-31T21:50:12.616Z,63.2
2017-03-31T22:00:13.026Z,63.8
2017-03-31T22:10:00.318Z,62.7
2017-03-31T22:20:26.396Z,62.7
2017-03-31T22:30:06.359Z,62.7
2017-03-31T22:40:06.360Z,62.7
2017-03-31T22:50:06.378Z,62.7
2017-03-31T23:00:06.386Z,62.1
2017-03-31T23:10:06.366Z,62.1
2017-03-31T23:20:06.372Z,62.7
2017-03-31T23:30:06.814Z,62.7
2017-03-31T23:40:06.418Z,62.1
2017-03-31T23:50:06.362Z,61.6
